createdAt,value
2019-03-08T00:01:30.781Z,0.90
2019-03-08T00:06:35.038Z,1.10
2019-03-08T00:11:39.591Z,1.20
2019-03-08T00:16:43.764Z,0.90
2019-03-08T00:21:48.204Z,1.17
2019-03-08T00:26:52.354Z,1.12
2019-03-08T00:31:57.069Z,1.10
2019-03-08T00:37:01.519Z,0.90
2019-03-08T00:42:05.730Z,0.80
2019-03-08T00:47:09.915Z,1.10
2019-03-08T00:52:14.086Z,0.97
2019-03-08T00:57:18.283Z,1.00
2019-03-08T01:02:22.454Z,1.07
2019-03-08T01:07:26.675Z,1.07
2019-03-08T01:12:31.134Z,1.00
2019-03-08T01:17:35.583Z,1.00
2019-03-08T01:22:39.896Z,1.00
2019-03-08T01:27:57.389Z,1.00
2019-03-08T01:33:01.554Z,1.03
2019-03-08T01:38:05.727Z,0.80
2019-03-08T01:43:10.102Z,0.90
2019-03-08T01:48:14.432Z,0.70
2019-03-08T01:53:20.058Z,0.73
2019-03-08T01:58:24.566Z,0.90
2019-03-08T02:03:28.834Z,0.77
2019-03-08T02:08:32.999Z,1.10
2019-03-08T02:13:37.268Z,0.80
2019-03-08T02:18:41.525Z,1.00
2019-03-08T02:23:47.302Z,0.70
2019-03-08T02:28:51.487Z,1.00
2019-03-08T02:33:55.692Z,0.83
2019-03-08T02:38:59.855Z,0.93
2019-03-08T02:44:05.260Z,0.90
2019-03-08T02:49:09.521Z,1.03
2019-03-08T02:54:15.064Z,0.90
2019-03-08T02:59:19.311Z,0.90
2019-03-08T03:04:23.535Z,1.00
2019-03-08T03:09:27.840Z,0.97
2019-03-08T03:14:32.039Z,1.27
2019-03-08T03:19:36.259Z,0.90
2019-03-08T03:24:42.840Z,0.90
2019-03-08T03:29:47.061Z,0.90
2019-03-08T03:34:52.628Z,1.20
2019-03-08T03:39:56.855Z,1.10
2019-03-08T03:45:02.842Z,1.60
2019-03-08T03:50:10.152Z,0.93
2019-03-08T03:55:14.907Z,0.90
2019-03-08T04:00:19.118Z,0.80
2019-03-08T04:05:23.577Z,0.90
2019-03-08T04:10:27.834Z,1.00
2019-03-08T04:15:32.454Z,0.70
2019-03-08T04:20:36.643Z,0.90
2019-03-08T04:25:41.754Z,0.80
2019-03-08T04:30:46.633Z,1.13
2019-03-08T04:35:53.067Z,0.90
2019-03-08T04:40:57.669Z,0.90
2019-03-08T04:46:02.245Z,0.83
2019-03-08T04:51:06.703Z,0.90
2019-03-08T04:56:11.065Z,0.70
2019-03-08T05:01:15.227Z,1.00
2019-03-08T05:06:20.521Z,0.90
2019-03-08T05:11:25.104Z,0.80
2019-03-08T05:16:30.347Z,0.95
2019-03-08T05:21:34.519Z,0.90
2019-03-08T05:26:40.621Z,1.00
2019-03-08T05:31:44.810Z,0.80
2019-03-08T05:36:50.231Z,0.80
2019-03-08T05:41:54.478Z,0.83
2019-03-08T05:47:00.003Z,0.97
2019-03-08T05:52:04.175Z,0.90
2019-03-08T05:57:09.574Z,0.73
2019-03-08T06:02:14.014Z,0.70
2019-03-08T06:07:19.615Z,1.00
2019-03-08T06:12:24.671Z,1.10
2019-03-08T06:17:29.225Z,0.87
2019-03-08T06:22:33.402Z,0.83
2019-03-08T06:27:38.069Z,1.00
2019-03-08T06:32:42.261Z,0.97
2019-03-08T06:37:46.804Z,0.90
2019-03-08T06:42:51.181Z,1.00
2019-03-08T06:47:56.290Z,1.40
2019-03-08T06:53:00.613Z,0.67
2019-03-08T06:58:06.058Z,1.00
2019-03-08T07:03:10.234Z,1.00
2019-03-08T07:08:15.940Z,1.40
2019-03-08T07:13:20.296Z,0.90
2019-03-08T07:18:25.861Z,0.80
2019-03-08T07:23:39.204Z,0.90
2019-03-08T07:28:54.137Z,1.22
2019-03-08T07:34:17.525Z,1.10
2019-03-08T07:39:40.156Z,1.17
2019-03-08T07:45:03.753Z,0.80
2019-03-08T07:50:22.058Z,0.80
2019-03-08T07:55:44.185Z,0.80
2019-03-08T08:01:05.276Z,1.12
2019-03-08T08:06:31.984Z,1.20
2019-03-08T08:12:00.377Z,1.37
2019-03-08T08:17:26.573Z,1.03
2019-03-08T08:22:53.998Z,0.80
2019-03-08T08:28:08.371Z,1.23
2019-03-08T08:33:37.986Z,1.02
2019-03-08T08:38:57.276Z,0.80
2019-03-08T08:44:15.053Z,1.10
2019-03-08T08:49:54.542Z,0.83
2019-03-08T08:55:13.707Z,1.03
2019-03-08T09:00:37.646Z,0.93
2019-03-08T09:06:06.279Z,0.88
2019-03-08T09:11:23.867Z,1.12
2019-03-08T09:16:50.415Z,1.20
2019-03-08T09:22:08.486Z,0.90
2019-03-08T09:27:19.362Z,1.43
2019-03-08T09:32:59.131Z,1.10
2019-03-08T09:38:11.103Z,1.30
2019-03-08T09:43:40.473Z,1.07
2019-03-08T09:48:54.900Z,1.40
2019-03-08T09:54:07.410Z,1.00
2019-03-08T09:59:43.113Z,1.13
2019-03-08T10:05:10.179Z,1.27
2019-03-08T10:10:29.362Z,1.15
2019-03-08T10:15:53.140Z,1.20
2019-03-08T10:21:16.763Z,0.80
2019-03-08T10:26:45.936Z,1.10
2019-03-08T10:32:09.831Z,0.97
2019-03-08T10:37:32.451Z,1.27
2019-03-08T10:43:00.595Z,1.00
2019-03-08T10:48:24.273Z,1.00
2019-03-08T10:53:36.846Z,0.73
2019-03-08T10:58:59.046Z,0.90
2019-03-08T11:04:23.754Z,1.07
2019-03-08T11:09:54.050Z,1.33
2019-03-08T11:15:26.751Z,0.90
2019-03-08T11:20:49.249Z,1.10
2019-03-08T11:26:11.444Z,0.90
2019-03-08T11:31:38.740Z,1.37
2019-03-08T11:37:00.565Z,0.97
2019-03-08T11:42:27.917Z,1.30
2019-03-08T11:47:59.249Z,1.00
2019-03-08T11:53:13.810Z,1.33
2019-03-08T11:58:40.483Z,1.23
2019-03-08T12:04:08.759Z,1.20
2019-03-08T12:09:34.900Z,0.90
2019-03-08T12:15:04.952Z,1.10
2019-03-08T12:20:28.012Z,1.10
2019-03-08T12:25:51.881Z,1.30
2019-03-08T12:31:14.067Z,1.30
2019-03-08T12:36:37.717Z,1.13
2019-03-08T12:42:00.005Z,0.80
2019-03-08T12:47:22.492Z,1.30
2019-03-08T12:52:45.203Z,1.10
2019-03-08T12:58:12.149Z,1.07
2019-03-08T13:03:35.205Z,0.90
2019-03-08T13:08:57.876Z,0.80
2019-03-08T13:14:02.452Z,0.67
2019-03-08T13:19:06.994Z,0.60
2019-03-08T13:24:12.675Z,0.80
2019-03-08T13:29:17.126Z,0.60
2019-03-08T13:34:22.084Z,0.77
2019-03-08T13:39:26.626Z,0.80
2019-03-08T13:44:31.474Z,0.80
2019-03-08T13:49:35.922Z,0.73
2019-03-08T13:54:41.722Z,0.70
2019-03-08T13:59:46.367Z,0.73
2019-03-08T14:04:53.825Z,0.70
2019-03-08T14:09:58.294Z,0.90
2019-03-08T14:15:02.711Z,0.80
2019-03-08T14:20:09.582Z,0.73
2019-03-08T14:25:16.584Z,1.00
2019-03-08T14:30:21.819Z,0.90
2019-03-08T14:35:29.743Z,0.82
2019-03-08T14:40:59.038Z,0.90
2019-03-08T14:46:22.613Z,0.90
2019-03-08T14:51:27.114Z,1.13
2019-03-08T14:56:35.907Z,0.93
2019-03-08T15:01:41.369Z,0.87
2019-03-08T15:06:47.283Z,0.90
2019-03-08T15:11:51.751Z,1.00
2019-03-08T15:16:56.467Z,0.95
2019-03-08T15:22:00.927Z,1.07
2019-03-08T15:27:06.663Z,1.00
2019-03-08T15:32:11.230Z,0.90
2019-03-08T15:37:17.052Z,1.10
2019-03-08T15:42:21.318Z,1.35
2019-03-08T15:47:26.414Z,0.90
2019-03-08T15:52:30.608Z,0.65
2019-03-08T15:57:35.962Z,0.72
2019-03-08T16:02:40.132Z,0.75
2019-03-08T16:07:45.804Z,0.60
2019-03-08T16:12:50.085Z,0.70
2019-03-08T16:17:55.527Z,0.82
2019-03-08T16:23:02.648Z,1.00
2019-03-08T16:28:07.809Z,0.80
2019-03-08T16:33:25.794Z,0.90
2019-03-08T16:38:52.276Z,0.93
2019-03-08T16:44:18.782Z,0.90
2019-03-08T16:49:41.097Z,0.73
2019-03-08T16:54:55.422Z,0.98
2019-03-08T17:00:16.000Z,0.80
2019-03-08T17:11:10.481Z,1.00
2019-03-08T17:16:32.112Z,0.97
2019-03-08T17:21:45.325Z,1.10
2019-03-08T17:27:09.351Z,1.10
2019-03-08T17:32:45.239Z,1.20
2019-03-08T17:38:20.793Z,1.02
2019-03-08T17:43:47.167Z,1.20
2019-03-08T17:49:10.773Z,1.20
2019-03-08T17:54:22.278Z,1.10
2019-03-08T17:59:43.339Z,1.40
2019-03-08T18:05:10.274Z,1.37
2019-03-08T18:10:34.010Z,1.40
2019-03-08T18:15:44.440Z,1.90
2019-03-08T18:20:58.914Z,2.00
2019-03-08T18:26:14.235Z,1.40
2019-03-08T18:31:49.744Z,1.40
2019-03-08T18:37:13.198Z,1.80
2019-03-08T18:42:34.538Z,1.57
2019-03-08T18:48:00.655Z,1.67
2019-03-08T18:53:23.228Z,1.60
2019-03-08T18:58:47.086Z,2.00
2019-03-08T19:04:00.984Z,1.93
2019-03-08T19:09:37.795Z,1.43
2019-03-08T19:14:59.370Z,1.90
2019-03-08T19:20:17.559Z,2.05
2019-03-08T19:25:31.567Z,2.27
2019-03-08T19:30:58.794Z,2.70
2019-03-08T19:36:15.730Z,2.43
2019-03-08T19:41:45.433Z,2.40
2019-03-08T19:46:57.934Z,1.97
2019-03-08T19:52:27.371Z,1.50
2019-03-08T19:57:43.832Z,3.63
2019-03-08T20:03:06.365Z,3.50
2019-03-08T20:08:25.147Z,3.23
2019-03-08T20:13:37.002Z,2.65
2019-03-08T20:19:04.103Z,2.30
2019-03-08T20:24:27.583Z,2.90
2019-03-08T20:29:55.827Z,2.50
2019-03-08T20:35:13.075Z,2.40
2019-03-08T20:40:42.832Z,2.30
2019-03-08T20:45:51.183Z,2.50
2019-03-08T20:50:55.477Z,2.80
2019-03-08T20:55:59.688Z,1.93
2019-03-08T21:01:04.312Z,2.97
2019-03-08T21:06:08.629Z,2.70
2019-03-08T21:11:13.796Z,2.20
2019-03-08T21:16:18.092Z,2.20
2019-03-08T21:21:23.838Z,2.30
2019-03-08T21:26:28.426Z,2.57
2019-03-08T21:31:33.542Z,2.67
2019-03-08T21:36:37.787Z,2.37
2019-03-08T21:41:43.349Z,2.23
2019-03-08T21:46:47.657Z,2.30
2019-03-08T21:51:53.490Z,2.40
2019-03-08T21:56:57.750Z,2.03
2019-03-08T22:02:03.084Z,2.03
2019-03-08T22:07:07.279Z,2.10
2019-03-08T22:12:12.368Z,1.97
2019-03-08T22:17:16.588Z,1.73
2019-03-08T22:22:22.113Z,2.20
2019-03-08T22:27:26.643Z,2.13
2019-03-08T22:32:32.270Z,2.00
2019-03-08T22:37:36.449Z,2.10
2019-03-08T22:42:42.305Z,1.93
2019-03-08T22:47:46.481Z,1.57
2019-03-08T22:52:53.301Z,1.80
2019-03-08T22:57:57.504Z,1.90
2019-03-08T23:03:03.004Z,1.70
2019-03-08T23:08:07.246Z,1.65
2019-03-08T23:13:12.935Z,1.60
2019-03-08T23:18:17.094Z,1.70
2019-03-08T23:23:22.293Z,1.80
2019-03-08T23:28:45.514Z,1.70
2019-03-08T23:33:49.787Z,1.47
2019-03-08T23:38:54.235Z,1.77
2019-03-08T23:43:59.704Z,1.60
2019-03-08T23:49:03.883Z,1.70
2019-03-08T23:54:09.590Z,1.60
2019-03-08T23:59:13.748Z,1.40
